sensor_id;sensor_type;location;lat;lon;timestamp;temperature;humidity
13369;DHT22;6753;52.520;13.450;2023-02-04T00:00:09;17.50;39.60
13369;DHT22;6753;52.520;13.450;2023-02-04T00:00:21;17.40;39.50
13369;DHT22;6753;52.520;13.450;2023-02-04T00:00:32;17.50;39.60
13369;DHT22;6753;52.520;13.450;2023-02-04T00:00:46;17.50;39.70
13369;DHT22;6753;52.520;13.450;2023-02-04T00:00:57;17.50;39.70
13369;DHT22;6753;52.520;13.450;2023-02-04T00:01:09;17.50;39.60
13369;DHT22;6753;52.520;13.450;2023-02-04T00:01:20;17.50;39.60
13369;DHT22;6753;52.520;13.450;2023-02-04T00:01:31;17.40;39.50
13369;DHT22;6753;52.520;13.450;2023-02-04T00:01:43;17.40;39.30
13369;DHT22;6753;52.520;13.450;2023-02-04T00:01:54;17.50;40.10
13369;DHT22;6753;52.520;13.450;2023-02-04T00:02:05;17.40;40.40
13369;DHT22;6753;52.520;13.450;2023-02-04T00:02:16;17.40;40.40
13369;DHT22;6753;52.520;13.450;2023-02-04T00:02:27;17.40;40.60
13369;DHT22;6753;52.520;13.450;2023-02-04T00:02:38;17.50;40.80
13369;DHT22;6753;52.520;13.450;2023-02-04T00:02:50;17.40;40.40
13369;DHT22;6753;52.520;13.450;2023-02-04T00:03:01;17.50;40.50
13369;DHT22;6753;52.520;13.450;2023-02-04T00:03:11;17.50;40.40
13369;DHT22;6753;52.520;13.450;2023-02-04T00:03:22;17.40;40.10
13369;DHT22;6753;52.520;13.450;2023-02-04T00:03:36;17.50;40.30
13369;DHT22;6753;52.520;13.450;2023-02-04T00:03:47;17.50;40.10
13369;DHT22;6753;52.520;13.450;2023-02-04T00:03:58;17.50;40.20
13369;DHT22;6753;52.520;13.450;2023-02-04T00:04:11;17.50;41.20
13369;DHT22;6753;52.520;13.450;2023-02-04T00:04:22;17.80;41.40
13369;DHT22;6753;52.520;13.450;2023-02-04T00:04:33;17.50;40.90
13369;DHT22;6753;52.520;13.450;2023-02-04T00:04:44;17.50;40.70
13369;DHT22;6753;52.520;13.450;2023-02-04T00:04:55;17.60;40.80
13369;DHT22;6753;52.520;13.450;2023-02-04T00:05:06;17.50;40.90
13369;DHT22;6753;52.520;13.450;2023-02-04T00:05:17;17.50;41.20
13369;DHT22;6753;52.520;13.450;2023-02-04T00:05:31;17.50;40.90
13369;DHT22;6753;52.520;13.450;2023-02-04T00:05:42;20.00;44.40
13369;DHT22;6753;52.520;13.450;2023-02-04T00:05:53;17.60;40.80
13369;DHT22;6753;52.520;13.450;2023-02-04T00:06:04;17.60;40.70
13369;DHT22;6753;52.520;13.450;2023-02-04T00:06:15;17.60;40.70
13369;DHT22;6753;52.520;13.450;2023-02-04T00:06:26;17.60;40.60
13369;DHT22;6753;52.520;13.450;2023-02-04T00:06:37;17.60;41.10
13369;DHT22;6753;52.520;13.450;2023-02-04T00:06:48;17.70;41.20
13369;DHT22;6753;52.520;13.450;2023-02-04T00:07:00;17.60;41.40
13369;DHT22;6753;52.520;13.450;2023-02-04T00:07:11;17.60;41.40
13369;DHT22;6753;52.520;13.450;2023-02-04T00:07:22;17.70;41.40
13369;DHT22;6753;52.520;13.450;2023-02-04T00:07:33;17.70;41.50
13369;DHT22;6753;52.520;13.450;2023-02-04T00:07:43;17.70;41.60
13369;DHT22;6753;52.520;13.450;2023-02-04T00:07:54;17.70;41.40
13369;DHT22;6753;52.520;13.450;2023-02-04T00:08:05;17.80;41.40
13369;DHT22;6753;52.520;13.450;2023-02-04T00:08:16;17.80;41.20
13369;DHT22;6753;52.520;13.450;2023-02-04T00:08:29;17.80;41.00
13369;DHT22;6753;52.520;13.450;2023-02-04T00:08:39;17.80;41.10
13369;DHT22;6753;52.520;13.450;2023-02-04T00:08:50;17.80;41.10
13369;DHT22;6753;52.520;13.450;2023-02-04T00:09:01;17.80;41.20
13369;DHT22;6753;52.520;13.450;2023-02-04T00:09:12;17.80;41.20
13369;DHT22;6753;52.520;13.450;2023-02-04T00:09:25;19.40;43.50
13369;DHT22;6753;52.520;13.450;2023-02-04T00:09:36;17.80;41.20
13369;DHT22;6753;52.520;13.450;2023-02-04T00:09:47;17.90;41.20
13369;DHT22;6753;52.520;13.450;2023-02-04T00:09:59;17.90;41.20
13369;DHT22;6753;52.520;13.450;2023-02-04T00:10:10;19.40;44.00
13369;DHT22;6753;52.520;13.450;2023-02-04T00:10:21;17.90;41.70
13369;DHT22;6753;52.520;13.450;2023-02-04T00:10:32;17.90;41.20
13369;DHT22;6753;52.520;13.450;2023-02-04T00:10:43;17.90;41.20
13369;DHT22;6753;52.520;13.450;2023-02-04T00:10:56;17.90;41.20
13369;DHT22;6753;52.520;13.450;2023-02-04T00:11:06;17.90;41.30
13369;DHT22;6753;52.520;13.450;2023-02-04T00:11:17;17.90;41.40
13369;DHT22;6753;52.520;13.450;2023-02-04T00:11:28;17.90;41.50
13369;DHT22;6753;52.520;13.450;2023-02-04T00:11:39;17.90;42.00
13369;DHT22;6753;52.520;13.450;2023-02-04T00:11:51;19.20;44.00
13369;DHT22;6753;52.520;13.450;2023-02-04T00:12:02;17.90;42.00
13369;DHT22;6753;52.520;13.450;2023-02-04T00:12:13;17.90;42.10
13369;DHT22;6753;52.520;13.450;2023-02-04T00:12:24;17.90;41.90
13369;DHT22;6753;52.520;13.450;2023-02-04T00:12:35;19.20;43.60
13369;DHT22;6753;52.520;13.450;2023-02-04T00:12:46;17.90;41.70
13369;DHT22;6753;52.520;13.450;2023-02-04T00:12:57;17.90;41.90
13369;DHT22;6753;52.520;13.450;2023-02-04T00:13:09;17.90;42.30
13369;DHT22;6753;52.520;13.450;2023-02-04T00:13:19;18.00;42.50
13369;DHT22;6753;52.520;13.450;2023-02-04T00:13:30;18.00;42.40
13369;DHT22;6753;52.520;13.450;2023-02-04T00:13:41;19.10;44.10
13369;DHT22;6753;52.520;13.450;2023-02-04T00:13:53;18.10;42.70
13369;DHT22;6753;52.520;13.450;2023-02-04T00:14:03;18.10;42.70
13369;DHT22;6753;52.520;13.450;2023-02-04T00:14:14;18.00;42.30
13369;DHT22;6753;52.520;13.450;2023-02-04T00:14:25;20.50;45.80
13369;DHT22;6753;52.520;13.450;2023-02-04T00:14:36;18.00;42.10
13369;DHT22;6753;52.520;13.450;2023-02-04T00:14:48;18.00;41.90
13369;DHT22;6753;52.520;13.450;2023-02-04T00:15:00;18.00;42.00
13369;DHT22;6753;52.520;13.450;2023-02-04T00:15:11;18.10;42.10
13369;DHT22;6753;52.520;13.450;2023-02-04T00:15:21;18.10;42.00
13369;DHT22;6753;52.520;13.450;2023-02-04T00:15:32;18.10;42.10
13369;DHT22;6753;52.520;13.450;2023-02-04T00:15:43;18.10;42.00
13369;DHT22;6753;52.520;13.450;2023-02-04T00:15:54;18.10;41.80
13369;DHT22;6753;52.520;13.450;2023-02-04T00:16:06;18.10;41.60
13369;DHT22;6753;52.520;13.450;2023-02-04T00:16:17;18.60;42.30
13369;DHT22;6753;52.520;13.450;2023-02-04T00:16:28;18.10;41.60
13369;DHT22;6753;52.520;13.450;2023-02-04T00:16:39;18.10;41.70
13369;DHT22;6753;52.520;13.450;2023-02-04T00:16:50;18.10;41.70
13369;DHT22;6753;52.520;13.450;2023-02-04T00:17:01;18.10;41.80
13369;DHT22;6753;52.520;13.450;2023-02-04T00:17:12;18.10;41.90
13369;DHT22;6753;52.520;13.450;2023-02-04T00:17:23;18.10;41.90
13369;DHT22;6753;52.520;13.450;2023-02-04T00:17:34;18.10;41.90
13369;DHT22;6753;52.520;13.450;2023-02-04T00:17:48;18.10;42.60
13369;DHT22;6753;52.520;13.450;2023-02-04T00:17:59;18.10;42.00
13369;DHT22;6753;52.520;13.450;2023-02-04T00:18:10;18.10;42.10
13369;DHT22;6753;52.520;13.450;2023-02-04T00:18:21;18.10;42.60
13369;DHT22;6753;52.520;13.450;2023-02-04T00:18:31;18.10;42.10
13369;DHT22;6753;52.520;13.450;2023-02-04T00:18:42;18.10;42.10
13369;DHT22;6753;52.520;13.450;2023-02-04T00:18:53;18.40;42.60
13369;DHT22;6753;52.520;13.450;2023-02-04T00:19:05;18.10;42.20
13369;DHT22;6753;52.520;13.450;2023-02-04T00:19:16;20.80;46.10
13369;DHT22;6753;52.520;13.450;2023-02-04T00:19:27;18.10;42.30
13369;DHT22;6753;52.520;13.450;2023-02-04T00:19:38;18.10;42.30
13369;DHT22;6753;52.520;13.450;2023-02-04T00:19:49;18.20;42.50
13369;DHT22;6753;52.520;13.450;2023-02-04T00:20:01;18.10;42.50
13369;DHT22;6753;52.520;13.450;2023-02-04T00:20:13;18.20;42.70
13369;DHT22;6753;52.520;13.450;2023-02-04T00:20:23;18.10;42.50
13369;DHT22;6753;52.520;13.450;2023-02-04T00:20:34;18.10;42.60
13369;DHT22;6753;52.520;13.450;2023-02-04T00:20:46;18.20;42.70
13369;DHT22;6753;52.520;13.450;2023-02-04T00:20:57;18.10;42.60
13369;DHT22;6753;52.520;13.450;2023-02-04T00:21:08;18.20;42.80
13369;DHT22;6753;52.520;13.450;2023-02-04T00:21:19;18.10;42.60
13369;DHT22;6753;52.520;13.450;2023-02-04T00:21:29;18.10;42.60
13369;DHT22;6753;52.520;13.450;2023-02-04T00:21:40;18.10;42.60
13369;DHT22;6753;52.520;13.450;2023-02-04T00:21:51;18.20;42.80
13369;DHT22;6753;52.520;13.450;2023-02-04T00:22:02;18.20;42.70
13369;DHT22;6753;52.520;13.450;2023-02-04T00:22:14;18.10;42.60
13369;DHT22;6753;52.520;13.450;2023-02-04T00:22:26;18.10;42.50
13369;DHT22;6753;52.520;13.450;2023-02-04T00:22:41;18.20;42.60
13369;DHT22;6753;52.520;13.450;2023-02-04T00:22:51;18.20;42.40
13369;DHT22;6753;52.520;13.450;2023-02-04T00:23:02;18.20;42.90
13369;DHT22;6753;52.520;13.450;2023-02-04T00:23:13;18.20;43.80
13369;DHT22;6753;52.520;13.450;2023-02-04T00:23:24;18.20;43.40
13369;DHT22;6753;52.520;13.450;2023-02-04T00:23:35;18.20;43.40
13369;DHT22;6753;52.520;13.450;2023-02-04T00:23:47;18.20;43.40
13369;DHT22;6753;52.520;13.450;2023-02-04T00:23:59;18.10;43.30
13369;DHT22;6753;52.520;13.450;2023-02-04T00:24:10;18.20;43.40
13369;DHT22;6753;52.520;13.450;2023-02-04T00:24:21;18.20;43.50
13369;DHT22;6753;52.520;13.450;2023-02-04T00:24:32;18.20;43.50
13369;DHT22;6753;52.520;13.450;2023-02-04T00:24:43;18.20;43.40
13369;DHT22;6753;52.520;13.450;2023-02-04T00:24:58;18.20;43.40
13369;DHT22;6753;52.520;13.450;2023-02-04T00:25:09;18.20;43.40
13369;DHT22;6753;52.520;13.450;2023-02-04T00:25:20;18.20;43.40
13369;DHT22;6753;52.520;13.450;2023-02-04T00:25:31;18.20;43.30
13369;DHT22;6753;52.520;13.450;2023-02-04T00:25:42;18.20;43.20
13369;DHT22;6753;52.520;13.450;2023-02-04T00:25:53;18.20;43.20
13369;DHT22;6753;52.520;13.450;2023-02-04T00:26:06;18.20;43.30
13369;DHT22;6753;52.520;13.450;2023-02-04T00:26:17;18.20;43.40
13369;DHT22;6753;52.520;13.450;2023-02-04T00:26:29;18.20;43.40
13369;DHT22;6753;52.520;13.450;2023-02-04T00:26:40;18.20;43.40
13369;DHT22;6753;52.520;13.450;2023-02-04T00:26:50;18.20;43.30
13369;DHT22;6753;52.520;13.450;2023-02-04T00:27:01;18.20;43.40
13369;DHT22;6753;52.520;13.450;2023-02-04T00:27:13;18.20;43.50
13369;DHT22;6753;52.520;13.450;2023-02-04T00:27:24;18.20;43.50
13369;DHT22;6753;52.520;13.450;2023-02-04T00:27:35;18.20;43.50
13369;DHT22;6753;52.520;13.450;2023-02-04T00:27:46;18.20;43.50
13369;DHT22;6753;52.520;13.450;2023-02-04T00:27:57;18.20;43.40
13369;DHT22;6753;52.520;13.450;2023-02-04T00:28:08;18.20;43.40
13369;DHT22;6753;52.520;13.450;2023-02-04T00:28:19;18.20;43.30
13369;DHT22;6753;52.520;13.450;2023-02-04T00:28:29;18.20;43.30
13369;DHT22;6753;52.520;13.450;2023-02-04T00:28:40;18.20;43.20
13369;DHT22;6753;52.520;13.450;2023-02-04T00:28:51;18.20;43.20
13369;DHT22;6753;52.520;13.450;2023-02-04T00:29:02;18.20;43.20
13369;DHT22;6753;52.520;13.450;2023-02-04T00:29:12;18.20;43.20
13369;DHT22;6753;52.520;13.450;2023-02-04T00:29:24;18.20;43.20
13369;DHT22;6753;52.520;13.450;2023-02-04T00:29:35;18.20;43.20
13369;DHT22;6753;52.520;13.450;2023-02-04T00:29:46;18.20;43.10
13369;DHT22;6753;52.520;13.450;2023-02-04T00:29:57;18.20;43.20
13369;DHT22;6753;52.520;13.450;2023-02-04T00:30:09;18.20;43.20
13369;DHT22;6753;52.520;13.450;2023-02-04T00:30:20;18.20;43.20
13369;DHT22;6753;52.520;13.450;2023-02-04T00:30:31;19.10;44.60
13369;DHT22;6753;52.520;13.450;2023-02-04T00:30:42;18.20;43.30
13369;DHT22;6753;52.520;13.450;2023-02-04T00:30:54;18.20;43.40
13369;DHT22;6753;52.520;13.450;2023-02-04T00:31:04;18.20;43.40
13369;DHT22;6753;52.520;13.450;2023-02-04T00:31:15;18.30;43.50
13369;DHT22;6753;52.520;13.450;2023-02-04T00:31:26;18.30;43.50
13369;DHT22;6753;52.520;13.450;2023-02-04T00:31:37;18.20;43.40
13369;DHT22;6753;52.520;13.450;2023-02-04T00:31:48;18.20;43.50
13369;DHT22;6753;52.520;13.450;2023-02-04T00:31:59;18.20;43.50
13369;DHT22;6753;52.520;13.450;2023-02-04T00:32:10;18.20;43.50
13369;DHT22;6753;52.520;13.450;2023-02-04T00:32:21;18.20;43.40
13369;DHT22;6753;52.520;13.450;2023-02-04T00:32:32;18.20;43.50
13369;DHT22;6753;52.520;13.450;2023-02-04T00:32:43;18.20;43.50
13369;DHT22;6753;52.520;13.450;2023-02-04T00:32:54;18.30;43.60
13369;DHT22;6753;52.520;13.450;2023-02-04T00:33:15;18.30;43.50
13369;DHT22;6753;52.520;13.450;2023-02-04T00:33:26;18.30;44.00
13369;DHT22;6753;52.520;13.450;2023-02-04T00:33:37;18.30;44.70
13369;DHT22;6753;52.520;13.450;2023-02-04T00:33:48;18.30;44.50
13369;DHT22;6753;52.520;13.450;2023-02-04T00:33:59;18.30;44.60
13369;DHT22;6753;52.520;13.450;2023-02-04T00:34:10;18.30;44.40
13369;DHT22;6753;52.520;13.450;2023-02-04T00:34:21;18.30;44.20
13369;DHT22;6753;52.520;13.450;2023-02-04T00:34:32;18.30;44.00
13369;DHT22;6753;52.520;13.450;2023-02-04T00:34:46;18.30;44.00
13369;DHT22;6753;52.520;13.450;2023-02-04T00:34:57;18.30;44.20
13369;DHT22;6753;52.520;13.450;2023-02-04T00:35:08;18.30;44.10
13369;DHT22;6753;52.520;13.450;2023-02-04T00:35:19;18.30;44.10
13369;DHT22;6753;52.520;13.450;2023-02-04T00:35:31;18.30;43.90
13369;DHT22;6753;52.520;13.450;2023-02-04T00:35:42;18.30;44.00
13369;DHT22;6753;52.520;13.450;2023-02-04T00:35:53;18.30;44.00
13369;DHT22;6753;52.520;13.450;2023-02-04T00:36:04;18.30;44.00
13369;DHT22;6753;52.520;13.450;2023-02-04T00:36:15;18.30;44.30
13369;DHT22;6753;52.520;13.450;2023-02-04T00:36:26;18.30;44.20
13369;DHT22;6753;52.520;13.450;2023-02-04T00:36:37;18.30;44.10
13369;DHT22;6753;52.520;13.450;2023-02-04T00:36:48;18.30;44.10
13369;DHT22;6753;52.520;13.450;2023-02-04T00:36:59;18.30;44.20
13369;DHT22;6753;52.520;13.450;2023-02-04T00:37:10;18.30;44.20
13369;DHT22;6753;52.520;13.450;2023-02-04T00:37:21;18.40;44.20
13369;DHT22;6753;52.520;13.450;2023-02-04T00:37:32;18.30;44.60
13369;DHT22;6753;52.520;13.450;2023-02-04T00:37:43;18.30;44.20
13369;DHT22;6753;52.520;13.450;2023-02-04T00:37:54;18.30;44.50
13369;DHT22;6753;52.520;13.450;2023-02-04T00:38:06;18.30;44.50
13369;DHT22;6753;52.520;13.450;2023-02-04T00:38:17;18.30;44.70
13369;DHT22;6753;52.520;13.450;2023-02-04T00:38:28;18.40;44.90
13369;DHT22;6753;52.520;13.450;2023-02-04T00:38:39;18.30;44.70
13369;DHT22;6753;52.520;13.450;2023-02-04T00:38:50;18.30;44.70
13369;DHT22;6753;52.520;13.450;2023-02-04T00:39:01;18.40;44.80
13369;DHT22;6753;52.520;13.450;2023-02-04T00:39:12;18.30;44.60
13369;DHT22;6753;52.520;13.450;2023-02-04T00:39:22;18.40;44.50
13369;DHT22;6753;52.520;13.450;2023-02-04T00:39:35;18.30;44.40
13369;DHT22;6753;52.520;13.450;2023-02-04T00:39:46;18.30;44.60
13369;DHT22;6753;52.520;13.450;2023-02-04T00:39:57;18.30;44.70
13369;DHT22;6753;52.520;13.450;2023-02-04T00:40:09;18.30;44.80
13369;DHT22;6753;52.520;13.450;2023-02-04T00:40:20;18.30;44.90
13369;DHT22;6753;52.520;13.450;2023-02-04T00:40:31;20.80;48.60
13369;DHT22;6753;52.520;13.450;2023-02-04T00:40:43;18.30;45.00
13369;DHT22;6753;52.520;13.450;2023-02-04T00:40:54;18.30;45.00
13369;DHT22;6753;52.520;13.450;2023-02-04T00:41:06;18.30;45.10
13369;DHT22;6753;52.520;13.450;2023-02-04T00:41:17;18.30;45.10
13369;DHT22;6753;52.520;13.450;2023-02-04T00:41:28;18.30;45.10
13369;DHT22;6753;52.520;13.450;2023-02-04T00:41:39;18.30;45.10
13369;DHT22;6753;52.520;13.450;2023-02-04T00:41:50;18.30;45.20
13369;DHT22;6753;52.520;13.450;2023-02-04T00:42:01;18.30;45.10
13369;DHT22;6753;52.520;13.450;2023-02-04T00:42:16;18.30;45.10
13369;DHT22;6753;52.520;13.450;2023-02-04T00:42:27;18.30;45.10
13369;DHT22;6753;52.520;13.450;2023-02-04T00:42:38;18.30;44.90
13369;DHT22;6753;52.520;13.450;2023-02-04T00:42:49;18.30;44.90
13369;DHT22;6753;52.520;13.450;2023-02-04T00:42:59;18.30;44.90
13369;DHT22;6753;52.520;13.450;2023-02-04T00:43:10;18.40;45.00
13369;DHT22;6753;52.520;13.450;2023-02-04T00:43:21;18.30;44.90
13369;DHT22;6753;52.520;13.450;2023-02-04T00:43:32;18.30;44.90
13369;DHT22;6753;52.520;13.450;2023-02-04T00:43:43;18.30;44.90
13369;DHT22;6753;52.520;13.450;2023-02-04T00:43:54;18.30;44.80
13369;DHT22;6753;52.520;13.450;2023-02-04T00:44:05;18.30;44.80
13369;DHT22;6753;52.520;13.450;2023-02-04T00:44:16;18.30;44.90
13369;DHT22;6753;52.520;13.450;2023-02-04T00:44:26;20.20;47.70
13369;DHT22;6753;52.520;13.450;2023-02-04T00:44:37;18.30;45.10
13369;DHT22;6753;52.520;13.450;2023-02-04T00:44:48;18.30;45.20
13369;DHT22;6753;52.520;13.450;2023-02-04T00:45:00;18.30;45.20
13369;DHT22;6753;52.520;13.450;2023-02-04T00:45:12;18.30;45.20
13369;DHT22;6753;52.520;13.450;2023-02-04T00:45:22;18.30;45.30
13369;DHT22;6753;52.520;13.450;2023-02-04T00:45:33;18.30;45.70
13369;DHT22;6753;52.520;13.450;2023-02-04T00:45:44;18.30;45.20
13369;DHT22;6753;52.520;13.450;2023-02-04T00:45:55;18.40;45.40
13369;DHT22;6753;52.520;13.450;2023-02-04T00:46:06;18.30;45.20
13369;DHT22;6753;52.520;13.450;2023-02-04T00:46:17;20.00;47.70
13369;DHT22;6753;52.520;13.450;2023-02-04T00:46:28;18.70;45.80
13369;DHT22;6753;52.520;13.450;2023-02-04T00:46:40;18.30;45.20
13369;DHT22;6753;52.520;13.450;2023-02-04T00:46:52;18.40;45.40
13369;DHT22;6753;52.520;13.450;2023-02-04T00:47:05;18.30;45.20
13369;DHT22;6753;52.520;13.450;2023-02-04T00:47:16;18.30;45.20
13369;DHT22;6753;52.520;13.450;2023-02-04T00:47:26;18.30;45.10
13369;DHT22;6753;52.520;13.450;2023-02-04T00:47:37;18.30;45.10
13369;DHT22;6753;52.520;13.450;2023-02-04T00:47:49;18.30;45.10
13369;DHT22;6753;52.520;13.450;2023-02-04T00:47:59;18.30;45.10
13369;DHT22;6753;52.520;13.450;2023-02-04T00:48:11;18.30;45.10
13369;DHT22;6753;52.520;13.450;2023-02-04T00:48:22;18.30;45.00
13369;DHT22;6753;52.520;13.450;2023-02-04T00:48:33;18.40;45.20
13369;DHT22;6753;52.520;13.450;2023-02-04T00:48:45;18.30;45.00
13369;DHT22;6753;52.520;13.450;2023-02-04T00:48:56;18.30;45.00
13369;DHT22;6753;52.520;13.450;2023-02-04T00:49:06;18.30;44.90
13369;DHT22;6753;52.520;13.450;2023-02-04T00:49:20;18.40;45.00
13369;DHT22;6753;52.520;13.450;2023-02-04T00:49:32;18.30;44.80
13369;DHT22;6753;52.520;13.450;2023-02-04T00:49:43;18.30;44.80
13369;DHT22;6753;52.520;13.450;2023-02-04T00:49:54;18.40;44.90
13369;DHT22;6753;52.520;13.450;2023-02-04T00:50:06;18.40;44.90
13369;DHT22;6753;52.520;13.450;2023-02-04T00:50:17;18.40;45.00
13369;DHT22;6753;52.520;13.450;2023-02-04T00:50:27;18.40;45.00
13369;DHT22;6753;52.520;13.450;2023-02-04T00:50:38;18.40;44.90
13369;DHT22;6753;52.520;13.450;2023-02-04T00:50:49;21.50;49.40
13369;DHT22;6753;52.520;13.450;2023-02-04T00:51:00;18.40;44.90
13369;DHT22;6753;52.520;13.450;2023-02-04T00:51:11;18.40;44.80
13369;DHT22;6753;52.520;13.450;2023-02-04T00:51:23;18.40;44.80
13369;DHT22;6753;52.520;13.450;2023-02-04T00:51:34;18.40;44.90
13369;DHT22;6753;52.520;13.450;2023-02-04T00:51:46;18.40;44.90
13369;DHT22;6753;52.520;13.450;2023-02-04T00:51:57;18.40;44.90
13369;DHT22;6753;52.520;13.450;2023-02-04T00:52:08;18.40;44.90
13369;DHT22;6753;52.520;13.450;2023-02-04T00:52:19;18.40;44.90
13369;DHT22;6753;52.520;13.450;2023-02-04T00:52:30;18.40;44.90
13369;DHT22;6753;52.520;13.450;2023-02-04T00:52:40;18.40;44.90
13369;DHT22;6753;52.520;13.450;2023-02-04T00:52:51;18.40;45.00
13369;DHT22;6753;52.520;13.450;2023-02-04T00:53:03;18.40;45.00
13369;DHT22;6753;52.520;13.450;2023-02-04T00:53:14;18.40;45.00
13369;DHT22;6753;52.520;13.450;2023-02-04T00:53:25;18.30;44.80
13369;DHT22;6753;52.520;13.450;2023-02-04T00:53:36;18.40;45.00
13369;DHT22;6753;52.520;13.450;2023-02-04T00:53:47;18.40;45.00
13369;DHT22;6753;52.520;13.450;2023-02-04T00:53:58;18.40;45.00
13369;DHT22;6753;52.520;13.450;2023-02-04T00:54:08;18.40;45.00
13369;DHT22;6753;52.520;13.450;2023-02-04T00:54:19;18.40;45.00
13369;DHT22;6753;52.520;13.450;2023-02-04T00:54:31;18.40;45.10
13369;DHT22;6753;52.520;13.450;2023-02-04T00:54:42;18.40;45.00
13369;DHT22;6753;52.520;13.450;2023-02-04T00:54:52;18.40;45.00
13369;DHT22;6753;52.520;13.450;2023-02-04T00:55:04;18.40;45.10
13369;DHT22;6753;52.520;13.450;2023-02-04T00:55:17;18.40;45.10
13369;DHT22;6753;52.520;13.450;2023-02-04T00:55:28;18.40;45.00
13369;DHT22;6753;52.520;13.450;2023-02-04T00:55:39;18.40;45.00
13369;DHT22;6753;52.520;13.450;2023-02-04T00:55:51;18.40;45.10
13369;DHT22;6753;52.520;13.450;2023-02-04T00:56:02;18.40;45.10
13369;DHT22;6753;52.520;13.450;2023-02-04T00:56:14;18.40;45.10
13369;DHT22;6753;52.520;13.450;2023-02-04T00:56:25;18.40;45.10
13369;DHT22;6753;52.520;13.450;2023-02-04T00:56:36;18.40;45.00
13369;DHT22;6753;52.520;13.450;2023-02-04T00:56:47;18.40;45.00
13369;DHT22;6753;52.520;13.450;2023-02-04T00:56:58;18.40;45.10
13369;DHT22;6753;52.520;13.450;2023-02-04T00:57:08;18.40;45.00
13369;DHT22;6753;52.520;13.450;2023-02-04T00:57:20;18.40;45.00
13369;DHT22;6753;52.520;13.450;2023-02-04T00:57:31;18.50;45.20
13369;DHT22;6753;52.520;13.450;2023-02-04T00:57:42;18.40;45.10
13369;DHT22;6753;52.520;13.450;2023-02-04T00:57:53;18.40;45.10
13369;DHT22;6753;52.520;13.450;2023-02-04T00:58:04;21.20;49.20
13369;DHT22;6753;52.520;13.450;2023-02-04T00:58:15;18.40;45.10
13369;DHT22;6753;52.520;13.450;2023-02-04T00:58:26;18.40;45.10
13369;DHT22;6753;52.520;13.450;2023-02-04T00:58:38;18.40;45.10
13369;DHT22;6753;52.520;13.450;2023-02-04T00:58:49;18.40;45.20
13369;DHT22;6753;52.520;13.450;2023-02-04T00:59:01;18.40;45.10
13369;DHT22;6753;52.520;13.450;2023-02-04T00:59:11;18.40;45.10
13369;DHT22;6753;52.520;13.450;2023-02-04T00:59:22;18.40;45.10
13369;DHT22;6753;52.520;13.450;2023-02-04T00:59:33;18.40;45.20
13369;DHT22;6753;52.520;13.450;2023-02-04T00:59:44;18.40;45.10
13369;DHT22;6753;52.520;13.450;2023-02-04T00:59:55;18.40;45.20
13369;DHT22;6753;52.520;13.450;2023-02-04T01:00:09;18.40;45.20
13369;DHT22;6753;52.520;13.450;2023-02-04T01:00:23;18.40;45.20
13369;DHT22;6753;52.520;13.450;2023-02-04T01:00:34;18.40;45.30
13369;DHT22;6753;52.520;13.450;2023-02-04T01:00:45;18.40;45.40
13369;DHT22;6753;52.520;13.450;2023-02-04T01:00:55;18.40;45.60
13369;DHT22;6753;52.520;13.450;2023-02-04T01:01:06;18.40;45.60
13369;DHT22;6753;52.520;13.450;2023-02-04T01:01:17;18.40;45.60
13369;DHT22;6753;52.520;13.450;2023-02-04T01:01:28;18.40;45.60
13369;DHT22;6753;52.520;13.450;2023-02-04T01:01:40;18.40;45.70
13369;DHT22;6753;52.520;13.450;2023-02-04T01:01:51;18.40;45.70
13369;DHT22;6753;52.520;13.450;2023-02-04T01:02:02;18.40;45.60
13369;DHT22;6753;52.520;13.450;2023-02-04T01:02:13;18.40;45.60
13369;DHT22;6753;52.520;13.450;2023-02-04T01:02:24;18.40;45.60
13369;DHT22;6753;52.520;13.450;2023-02-04T01:02:35;18.40;45.60
13369;DHT22;6753;52.520;13.450;2023-02-04T01:02:46;18.40;45.60
13369;DHT22;6753;52.520;13.450;2023-02-04T01:02:57;18.40;45.60
13369;DHT22;6753;52.520;13.450;2023-02-04T01:03:08;18.40;45.60
13369;DHT22;6753;52.520;13.450;2023-02-04T01:03:19;18.40;45.60
13369;DHT22;6753;52.520;13.450;2023-02-04T01:03:30;18.40;45.60
13369;DHT22;6753;52.520;13.450;2023-02-04T01:03:41;18.40;45.50
13369;DHT22;6753;52.520;13.450;2023-02-04T01:03:51;18.40;45.40
13369;DHT22;6753;52.520;13.450;2023-02-04T01:04:03;18.40;45.50
13369;DHT22;6753;52.520;13.450;2023-02-04T01:04:15;18.40;45.70
13369;DHT22;6753;52.520;13.450;2023-02-04T01:04:26;18.40;45.90
13369;DHT22;6753;52.520;13.450;2023-02-04T01:04:37;18.40;46.00
13369;DHT22;6753;52.520;13.450;2023-02-04T01:04:48;18.40;46.00
13369;DHT22;6753;52.520;13.450;2023-02-04T01:04:59;18.40;46.00
13369;DHT22;6753;52.520;13.450;2023-02-04T01:05:10;18.40;46.00
13369;DHT22;6753;52.520;13.450;2023-02-04T01:05:21;18.40;45.90
13369;DHT22;6753;52.520;13.450;2023-02-04T01:05:32;18.40;46.00
13369;DHT22;6753;52.520;13.450;2023-02-04T01:05:42;18.40;46.10
13369;DHT22;6753;52.520;13.450;2023-02-04T01:05:56;18.40;46.00
13369;DHT22;6753;52.520;13.450;2023-02-04T01:06:07;18.40;46.00
13369;DHT22;6753;52.520;13.450;2023-02-04T01:06:18;18.40;45.90
13369;DHT22;6753;52.520;13.450;2023-02-04T01:06:29;18.40;45.80
13369;DHT22;6753;52.520;13.450;2023-02-04T01:06:40;18.40;45.70
13369;DHT22;6753;52.520;13.450;2023-02-04T01:06:51;18.40;45.60
13369;DHT22;6753;52.520;13.450;2023-02-04T01:07:01;18.40;45.60
13369;DHT22;6753;52.520;13.450;2023-02-04T01:07:12;18.40;45.60
13369;DHT22;6753;52.520;13.450;2023-02-04T01:07:23;18.40;45.60
13369;DHT22;6753;52.520;13.450;2023-02-04T01:07:35;18.40;45.60
13369;DHT22;6753;52.520;13.450;2023-02-04T01:07:51;20.20;48.30
13369;DHT22;6753;52.520;13.450;2023-02-04T01:08:02;18.40;45.70
13369;DHT22;6753;52.520;13.450;2023-02-04T01:08:13;18.40;45.80
13369;DHT22;6753;52.520;13.450;2023-02-04T01:08:24;18.40;46.00
13369;DHT22;6753;52.520;13.450;2023-02-04T01:08:35;18.40;45.90
13369;DHT22;6753;52.520;13.450;2023-02-04T01:08:46;18.40;45.90
13369;DHT22;6753;52.520;13.450;2023-02-04T01:08:58;20.10;48.40
13369;DHT22;6753;52.520;13.450;2023-02-04T01:09:09;18.40;45.90
13369;DHT22;6753;52.520;13.450;2023-02-04T01:09:20;18.40;45.90
13369;DHT22;6753;52.520;13.450;2023-02-04T01:09:31;18.40;45.80
13369;DHT22;6753;52.520;13.450;2023-02-04T01:09:41;18.40;45.80
13369;DHT22;6753;52.520;13.450;2023-02-04T01:09:52;18.40;45.80
13369;DHT22;6753;52.520;13.450;2023-02-04T01:10:04;18.40;45.70
13369;DHT22;6753;52.520;13.450;2023-02-04T01:10:15;18.40;45.70
13369;DHT22;6753;52.520;13.450;2023-02-04T01:10:27;18.40;45.70
13369;DHT22;6753;52.520;13.450;2023-02-04T01:10:38;18.40;45.80
13369;DHT22;6753;52.520;13.450;2023-02-04T01:10:49;18.40;46.00
13369;DHT22;6753;52.520;13.450;2023-02-04T01:11:00;20.50;49.10